Welcome to the New NWS' Forecast!
Most changes are behind the scenes, but click here for differences you might notice.
Latest weather observations around

LOS GATOS (LSGC1)

Using English Units (Switch to International System of Units)
Date/ Time (PDT) Wind (mph) Vis. (mi) Weather Sky Cond. Temp (°F) Rel. Humidity Wind Chill (°F) Heat Index (°F) Pressure Precip. (in)
Air Dwpt 6 hour Altimeter (inHg) Sea level (inHg) 1 hr 3 hr 6 hr
Max Min
Jul 19 19:32 SSW 10   Clear   76 41     28%   75          
Jul 19 18:32 S 11   Clear   79 40     25%   78          
Jul 19 17:32 S 10   Clear   82 41     23%   80          
Jul 19 16:32 S 10   Clear   85 45     25%   82          
Jul 19 15:32 SSW 10   Clear   88 50     27%   85          
Jul 19 14:32 SSW 7   Clear   94 47     20%   90          
Jul 19 13:32 SSW 5   Clear   94 53     25%   91          
Jul 19 12:32 SSE 4   Clear   91 53     28%   89          
Jul 19 11:32 S 6   Clear   89 47     24%   86          
Jul 19 10:32 S 7   Clear   83 46     27%   81          
Jul 19 09:32 S 8   Clear   79 46     31%   78          
Jul 19 08:32 S 6   Clear   76 41     28%   75          
Jul 19 07:32 S 4   Clear   74 39     28%   72          
Jul 19 06:32 S 5   Clear   70 39     32%              
Jul 19 05:32 SSW 4   Clear   73 40     30%   71          
Jul 19 04:32 N 1   Clear   74 45     36%   73          
Jul 19 03:32 N 4   Clear   75 44     33%   74          
Jul 19 02:32 S 3   Clear   78 39     25%   77          
Jul 19 01:32 S 3   Clear   79 43     28%   78          
Jul 19 00:32 S 2   Clear   75 50     42%   74          
Jul 18 23:32 S 2   Clear   77 48     36%   76          
Jul 18 22:32 S 4   Clear   73 54     52%   72          
Jul 18 21:32 SSE 2   Clear   71 58     63%   71          
Jul 18 20:32 S 6   Clear   73 58     60%   73          
Jul 18 19:32 SSW 4   Clear   79 59     50%   79          
Jul 18 18:32 SSW 4   Clear   85 60     43%   85          
Jul 18 17:32 NNW 4   Clear   88 60     39%   88          
Jul 18 16:32 N 4   Clear   89 61     39%   89          
Jul 18 15:32 N 5   Clear   91 62     38%   91          
Jul 18 14:32 N 5   Clear   90 59     36%   89          
Jul 18 13:32 N 5   Clear   90 58     34%   89          
Jul 18 12:32 SSE 4   Clear   90 59     36%   89          
Jul 18 11:32 NE 3   Clear   86 59     40%   85          
Jul 18 10:32 NNE 3   Clear   85 58     40%   84          
Jul 18 09:32 SSE 4   Clear   82 41     23%   80          
Notice The following observation data may not be complete
Jul 18 08:32 NNW 2   Clear     42      %              
Notice The following observation data may not be complete
Jul 18 07:32 SSE 1   Clear            %              
Jul 18 06:32 SSW 1   Clear   80        %              
Jul 18 05:32 N 3   Clear   75 23     14%   73          
Jul 18 04:32 SSW 1   Clear   73 32     22%   71          
Jul 18 03:32 NNE 2   Clear   75 44     33%   74          
Jul 18 02:32 SSW 2   Clear   74 48     40%   73          
Jul 18 01:32 S 2   Clear   73 51     46%   72          
Jul 18 00:32 Calm   Clear   72 52     49%   71          
Jul 17 23:32 ESE 1   Clear   72        %              
Jul 17 22:32 SE 1   Clear   73 56     56%   73          
Jul 17 21:32 ESE 1   Clear   71 57     61%   71          
Jul 17 20:32 ESE 4   Clear   72 57     59%   72          
Jul 17 19:32 NNE 3   Clear   78 57     49%   78          
Jul 17 18:32 N 3   Clear   84 59     43%   84          
Jul 17 17:32 N 5   Clear   85 59     41%   84          
Jul 17 16:32 N 6   Clear   87 59     39%   86          
Jul 17 15:32 N 5   Clear   87 58     38%   86          
Jul 17 14:32 N 5   Clear   88 58     36%   87          
Jul 17 13:32 N 6   Clear   85 57     39%   84          
Jul 17 12:32 N 4   Clear   85 59     41%   84          
Jul 17 11:32 ENE 3   Clear   84 58     42%   84          
Jul 17 10:32 SSE 3   Clear   78 57     49%   78          
Jul 17 09:32 SSE 3   Clear   76 55     49%   76          
Jul 17 08:32 S 3   Clear   75 43     32%   74          
Notice The following observation data may not be complete
Jul 17 07:32 SE 1   Clear     37      %              
Jul 17 06:32 S 1   Clear   74 34     23%   72          
Jul 17 05:32 SSW 2   Clear   72 32     23%   70          
Jul 17 04:32 NNE 2   Clear   72 32     23%   70          
Jul 17 03:32 NNE 2   Clear   73 36     26%   71          
Jul 17 02:32 NNE 1   Clear   73 41     32%   72          
Jul 17 01:32 Calm   Clear   73 44     35%   72          
Jul 17 00:32 ENE 1   Clear   73 44     36%   72          
Jul 16 23:32 SSE 2   Clear   68 55     63%              
Jul 16 22:32 SSW 1   Clear   69 55     62%              
Jul 16 21:32 N 1   Clear   69 55     61%              
Jul 16 20:32 SSW 1   Clear   71 55     57%   70          
May 14 18:32 N 6   Clear   60 49     67%              
Notice The following observation data may not be complete
May 14 10:32 SSW 4   Clear     48      %              
May 13 14:32     Clear   58 47     66%              
May 12 16:32     Clear   62 44     52%              
May 12 12:32 S 13   Clear   60 47     61%              
May 12 02:32 N 7   Clear   59 33     38%              
May 11 09:32 N 7   Clear   64 42     44%              
Jun 12 03:32 NNE 4   Clear   46 44     94% 44            
Jun 11 23:32 SSE 5   Clear   46 44     91% 44            
Jun 11 15:32 SW 5   Clear   61 41     47%              
Jun 11 06:32 WNW 3   Clear   47 42     82% 46            
Jun 11 01:32 N 6   Clear   45 42     88% 42            
Jun 08 16:32 SSW 8   Clear   59 56     90%              
Jun 08 01:32     Clear   56 28     34%              
Jun 07 19:32 N 2   Clear   60 51     72%